createdAt,value
2018-07-03T00:00:25.643Z,1.40
2018-07-03T00:02:53.662Z,1.77
2018-07-03T00:05:21.561Z,1.57
2018-07-03T00:07:53.493Z,1.80
2018-07-03T00:10:21.459Z,2.40
2018-07-03T00:12:49.383Z,2.20
2018-07-03T00:15:17.248Z,1.87
2018-07-03T00:17:45.202Z,1.70
2018-07-03T00:20:13.093Z,1.70
2018-07-03T00:22:41.110Z,2.37
2018-07-03T00:25:09.072Z,2.00
2018-07-03T00:27:37.018Z,1.83
2018-07-03T00:30:05.037Z,2.23
2018-07-03T00:32:32.979Z,2.00
2018-07-03T00:35:00.913Z,2.10
2018-07-03T00:37:28.805Z,2.23
2018-07-03T00:40:03.487Z,2.23
2018-07-03T00:42:31.381Z,2.53
2018-07-03T00:44:59.248Z,2.43
2018-07-03T00:47:27.122Z,2.53
2018-07-03T00:49:55.058Z,2.50
2018-07-03T00:52:22.941Z,2.40
2018-07-03T00:54:50.870Z,2.03
2018-07-03T00:57:18.837Z,2.80
2018-07-03T00:59:57.977Z,2.10
2018-07-03T01:02:25.965Z,2.20
2018-07-03T01:04:53.849Z,2.40
2018-07-03T01:07:21.837Z,2.80
2018-07-03T01:09:49.746Z,2.33
2018-07-03T01:12:17.715Z,2.70
2018-07-03T01:14:45.672Z,2.60
2018-07-03T01:17:13.633Z,2.70
2018-07-03T01:19:41.478Z,2.90
2018-07-03T01:22:09.433Z,2.40
2018-07-03T01:24:37.732Z,2.50
2018-07-03T01:27:05.778Z,2.70
2018-07-03T01:29:33.730Z,2.77
2018-07-03T01:32:01.633Z,2.70
2018-07-03T01:34:29.610Z,2.10
2018-07-03T01:36:57.510Z,2.23
2018-07-03T01:42:00.051Z,2.10
2018-07-03T01:44:27.941Z,2.10
2018-07-03T01:46:55.879Z,2.20
2018-07-03T01:49:23.750Z,2.10
2018-07-03T01:51:51.646Z,2.13
2018-07-03T01:54:19.655Z,2.00
2018-07-03T01:56:47.683Z,2.07
2018-07-03T01:59:15.603Z,1.90
2018-07-03T02:01:43.543Z,2.07
2018-07-03T02:04:11.872Z,2.00
2018-07-03T02:06:39.857Z,2.10
2018-07-03T02:09:10.414Z,1.87
2018-07-03T02:11:38.577Z,2.10
2018-07-03T02:14:06.851Z,2.37
2018-07-03T02:16:34.833Z,1.70
2018-07-03T02:19:02.842Z,2.00
2018-07-03T02:21:30.882Z,2.00
2018-07-03T02:23:59.126Z,1.93
2018-07-03T02:26:27.024Z,1.93
2018-07-03T02:28:54.999Z,1.80
2018-07-03T02:31:23.066Z,1.77
2018-07-03T02:33:51.064Z,2.10
2018-07-03T02:36:19.018Z,2.17
2018-07-03T02:38:46.959Z,2.00
2018-07-03T02:41:14.969Z,2.07
2018-07-03T02:43:42.877Z,1.77
2018-07-03T02:46:10.888Z,1.80
2018-07-03T02:48:38.977Z,2.10
2018-07-03T02:51:07.088Z,2.03
2018-07-03T02:53:35.130Z,2.17
2018-07-03T02:56:03.044Z,1.83
2018-07-03T02:58:30.881Z,2.40
2018-07-03T03:00:58.817Z,2.10
2018-07-03T03:03:26.773Z,1.87
2018-07-03T03:05:54.718Z,1.60
2018-07-03T03:08:24.014Z,2.00
2018-07-03T03:10:52.041Z,1.97
2018-07-03T03:13:19.966Z,1.80
2018-07-03T03:15:47.950Z,1.90
2018-07-03T03:18:15.844Z,1.90
2018-07-03T03:20:43.808Z,1.80
2018-07-03T03:23:11.582Z,1.77
2018-07-03T03:25:39.543Z,1.93
2018-07-03T03:28:07.487Z,1.50
2018-07-03T03:30:35.353Z,1.80
2018-07-03T03:33:03.408Z,2.07
2018-07-03T03:35:31.389Z,1.67
2018-07-03T03:37:59.232Z,1.60
2018-07-03T03:40:27.171Z,1.87
2018-07-03T03:42:55.099Z,1.80
2018-07-03T03:45:23.037Z,2.33
2018-07-03T03:47:50.953Z,1.30
2018-07-03T03:50:18.903Z,1.63
2018-07-03T03:52:46.908Z,2.10
2018-07-03T03:55:14.879Z,1.67
2018-07-03T03:57:42.770Z,1.60
2018-07-03T04:00:11.127Z,2.23
2018-07-03T04:02:39.454Z,2.00
2018-07-03T04:05:07.667Z,1.97
2018-07-03T04:07:35.621Z,1.97
2018-07-03T04:10:03.441Z,2.20
2018-07-03T04:12:31.432Z,2.50
2018-07-03T04:14:59.388Z,2.20
2018-07-03T04:17:27.354Z,2.00
2018-07-03T04:19:55.296Z,2.20
2018-07-03T04:22:23.213Z,2.60
2018-07-03T04:24:51.145Z,2.30
2018-07-03T04:27:19.058Z,2.20
2018-07-03T04:29:47.403Z,2.10
2018-07-03T04:32:15.418Z,2.10
2018-07-03T04:34:43.397Z,3.17
2018-07-03T04:37:11.328Z,2.33
2018-07-03T04:39:39.258Z,1.97
2018-07-03T04:42:07.221Z,2.40
2018-07-03T04:44:35.108Z,2.13
2018-07-03T04:47:03.163Z,2.13
2018-07-03T04:49:31.051Z,2.10
2018-07-03T04:51:59.027Z,2.10
2018-07-03T04:54:27.106Z,2.63
2018-07-03T04:56:55.109Z,2.43
2018-07-03T04:59:23.018Z,3.20
2018-07-03T05:01:51.091Z,2.40
2018-07-03T05:04:19.019Z,2.53
2018-07-03T05:06:47.027Z,2.40
2018-07-03T05:09:14.921Z,2.67
2018-07-03T05:11:42.831Z,2.33
2018-07-03T05:14:10.773Z,2.20
2018-07-03T05:16:38.767Z,2.60
2018-07-03T05:19:07.051Z,2.83
2018-07-03T05:21:35.102Z,2.60
2018-07-03T05:24:03.100Z,2.90
2018-07-03T05:29:05.780Z,2.60
2018-07-03T05:31:40.354Z,2.60
2018-07-03T05:34:08.385Z,2.73
2018-07-03T05:36:37.224Z,2.60
2018-07-03T05:39:07.825Z,2.80
2018-07-03T05:41:35.824Z,2.57
2018-07-03T05:44:03.859Z,2.63
2018-07-03T05:46:31.838Z,2.40
2018-07-03T05:48:59.789Z,2.50
2018-07-03T05:51:27.738Z,3.30
2018-07-03T05:53:55.841Z,3.00
2018-07-03T05:56:23.820Z,2.53
2018-07-03T05:58:51.694Z,2.77
2018-07-03T06:01:19.597Z,3.00
2018-07-03T06:03:47.557Z,2.87
2018-07-03T06:06:15.426Z,2.70
2018-07-03T06:08:43.337Z,2.63
2018-07-03T06:11:11.231Z,2.73
2018-07-03T06:13:39.170Z,3.13
2018-07-03T06:16:07.273Z,2.23
2018-07-03T06:18:35.304Z,2.40
2018-07-03T06:21:03.353Z,2.40
2018-07-03T06:23:31.250Z,2.30
2018-07-03T06:25:59.288Z,2.37
2018-07-03T06:28:27.137Z,2.67
2018-07-03T06:30:55.113Z,2.53
2018-07-03T06:33:23.053Z,1.90
2018-07-03T06:35:51.086Z,2.97
2018-07-03T06:38:18.970Z,2.97
2018-07-03T06:40:46.891Z,2.33
2018-07-03T06:43:14.878Z,2.40
2018-07-03T06:45:42.813Z,2.27
2018-07-03T06:48:10.753Z,2.17
2018-07-03T06:50:38.685Z,2.30
2018-07-03T06:53:06.641Z,2.20
2018-07-03T06:55:34.581Z,2.00
2018-07-03T06:58:02.451Z,1.80
2018-07-03T07:00:30.317Z,2.50
2018-07-03T07:02:58.232Z,1.93
2018-07-03T07:05:26.192Z,2.37
2018-07-03T07:07:54.262Z,2.17
2018-07-03T07:10:22.197Z,2.07
2018-07-03T07:12:50.177Z,2.13
2018-07-03T07:15:18.137Z,1.73
2018-07-03T07:17:46.123Z,2.13
2018-07-03T07:20:14.075Z,2.30
2018-07-03T07:22:42.050Z,2.00
2018-07-03T07:25:09.940Z,2.47
2018-07-03T07:27:37.860Z,2.10
2018-07-03T07:30:06.143Z,2.13
2018-07-03T07:32:34.117Z,2.07
2018-07-03T07:35:02.078Z,2.07
2018-07-03T07:37:29.920Z,2.47
2018-07-03T07:39:57.786Z,2.07
2018-07-03T07:42:25.630Z,2.35
2018-07-03T07:44:53.477Z,2.17
2018-07-03T07:47:21.384Z,1.98
2018-07-03T07:49:49.216Z,2.37
2018-07-03T07:52:17.028Z,2.22
2018-07-03T07:54:44.889Z,2.55
2018-07-03T07:57:12.729Z,2.10
2018-07-03T07:59:40.551Z,2.45
2018-07-03T08:02:08.318Z,2.22
2018-07-03T08:04:36.131Z,1.70
2018-07-03T08:07:04.389Z,2.20
2018-07-03T08:09:32.276Z,2.08
2018-07-03T08:12:00.228Z,2.08
2018-07-03T08:14:28.143Z,2.27
2018-07-03T08:16:56.005Z,1.42
2018-07-03T08:19:23.873Z,2.00
2018-07-03T08:21:51.878Z,1.92
2018-07-03T08:24:19.695Z,2.00
2018-07-03T08:26:47.594Z,2.22
2018-07-03T08:29:15.501Z,2.30
2018-07-03T08:31:43.342Z,2.80
2018-07-03T08:34:11.216Z,2.40
2018-07-03T08:36:39.144Z,2.40
2018-07-03T08:39:09.041Z,2.42
2018-07-03T08:41:36.946Z,1.80
2018-07-03T08:44:04.749Z,1.90
2018-07-03T08:46:32.569Z,1.70
2018-07-03T08:49:00.469Z,1.87
2018-07-03T08:51:28.354Z,1.85
2018-07-03T08:53:56.125Z,2.22
2018-07-03T08:56:24.160Z,2.47
2018-07-03T08:58:52.066Z,2.20
2018-07-03T09:01:19.912Z,2.17
2018-07-03T09:03:47.818Z,2.30
2018-07-03T09:06:15.823Z,1.92
2018-07-03T09:08:43.836Z,2.22
2018-07-03T09:11:11.678Z,1.75
2018-07-03T09:13:39.589Z,1.52
2018-07-03T09:16:07.287Z,1.70
2018-07-03T09:18:35.180Z,1.90
2018-07-03T09:21:03.058Z,2.12
2018-07-03T09:23:30.907Z,1.90
2018-07-03T09:25:58.724Z,1.95
2018-07-03T09:28:26.573Z,2.20
2018-07-03T09:30:54.235Z,1.82
2018-07-03T09:33:22.136Z,2.35
2018-07-03T09:35:49.928Z,2.00
2018-07-03T09:38:17.803Z,1.80
2018-07-03T09:40:45.617Z,1.90
2018-07-03T09:43:13.629Z,1.67
2018-07-03T09:45:41.481Z,1.90
2018-07-03T09:48:16.224Z,1.85
2018-07-03T09:50:44.052Z,2.20
2018-07-03T09:53:12.001Z,1.77
2018-07-03T09:55:39.851Z,2.08
2018-07-03T09:58:07.756Z,1.77
2018-07-03T10:00:41.295Z,1.90
2018-07-03T10:03:09.151Z,2.00
2018-07-03T10:05:36.967Z,2.42
2018-07-03T10:08:04.840Z,1.85
2018-07-03T10:10:32.763Z,1.85
2018-07-03T10:13:00.559Z,2.22
2018-07-03T10:15:28.374Z,2.17
2018-07-03T10:17:56.186Z,2.27
2018-07-03T10:20:23.969Z,2.20
2018-07-03T10:22:51.814Z,3.20
2018-07-03T10:25:19.436Z,1.75
2018-07-03T10:27:47.092Z,2.05
2018-07-03T10:30:14.713Z,1.98
2018-07-03T10:32:42.379Z,2.10
2018-07-03T10:35:10.013Z,1.95
2018-07-03T10:37:37.684Z,1.85
2018-07-03T10:40:05.565Z,2.08
2018-07-03T10:42:33.295Z,1.87
2018-07-03T10:45:00.910Z,1.87
2018-07-03T10:47:28.530Z,2.00
2018-07-03T10:49:56.071Z,2.30
2018-07-03T10:52:23.760Z,2.35
2018-07-03T10:54:51.361Z,2.40
2018-07-03T10:57:19.007Z,1.92
2018-07-03T10:59:46.693Z,2.02
2018-07-03T11:02:14.345Z,2.15
2018-07-03T11:04:41.974Z,2.10
2018-07-03T11:07:09.675Z,2.45
2018-07-03T11:09:37.326Z,1.70
2018-07-03T11:12:05.473Z,2.02
2018-07-03T11:14:33.101Z,1.80
2018-07-03T11:17:00.724Z,2.20
2018-07-03T11:19:28.352Z,1.90
2018-07-03T11:21:56.021Z,1.95
2018-07-03T11:24:23.683Z,1.77
2018-07-03T11:26:51.365Z,1.67
2018-07-03T11:29:18.985Z,2.00
2018-07-03T11:31:46.626Z,2.52
2018-07-03T11:34:14.336Z,2.72
2018-07-03T11:36:42.065Z,1.80
2018-07-03T11:39:09.891Z,1.95
2018-07-03T11:41:37.589Z,1.90
2018-07-03T11:44:05.197Z,2.22
2018-07-03T11:46:32.847Z,1.70
2018-07-03T11:49:00.514Z,2.20
2018-07-03T11:51:28.203Z,2.10
2018-07-03T11:53:55.829Z,2.10
2018-07-03T11:56:23.721Z,2.08
2018-07-03T11:58:51.404Z,2.25
2018-07-03T12:01:19.091Z,1.90
2018-07-03T12:03:46.735Z,2.22
2018-07-03T12:06:14.406Z,2.20
2018-07-03T12:08:42.033Z,2.10
2018-07-03T12:11:09.666Z,2.12
2018-07-03T12:13:37.284Z,1.90
2018-07-03T12:16:05.017Z,1.82
2018-07-03T12:18:38.397Z,2.25
2018-07-03T12:21:06.236Z,1.65
2018-07-03T12:23:33.885Z,1.90
2018-07-03T12:26:01.911Z,1.87
2018-07-03T12:28:29.621Z,1.60
2018-07-03T12:30:57.236Z,1.80
2018-07-03T12:33:24.882Z,1.57
2018-07-03T12:35:52.541Z,2.10
2018-07-03T12:38:20.169Z,1.67
2018-07-03T12:40:47.821Z,1.95
2018-07-03T12:43:15.460Z,1.62
2018-07-03T12:45:43.088Z,1.90
2018-07-03T12:48:10.717Z,3.35
2018-07-03T12:53:12.937Z,2.50
2018-07-03T12:55:40.573Z,1.92
2018-07-03T12:58:08.517Z,1.75
2018-07-03T13:00:36.178Z,1.80
2018-07-03T13:03:03.933Z,2.20
2018-07-03T13:05:31.645Z,1.77
2018-07-03T13:07:59.290Z,1.95
2018-07-03T13:10:26.917Z,1.90
2018-07-03T13:12:54.597Z,2.10
2018-07-03T13:15:22.245Z,2.10
2018-07-03T13:17:49.924Z,2.33
2018-07-03T13:20:17.605Z,2.58
2018-07-03T13:22:45.251Z,2.60
2018-07-03T13:25:13.001Z,2.47
2018-07-03T13:27:40.624Z,2.30
2018-07-03T13:30:09.439Z,2.58
2018-07-03T13:32:37.092Z,2.20
2018-07-03T13:35:06.060Z,2.40
2018-07-03T13:37:33.677Z,2.80
2018-07-03T13:40:01.391Z,2.55
2018-07-03T13:42:29.053Z,2.80
2018-07-03T13:44:56.694Z,2.22
2018-07-03T13:47:24.334Z,2.55
2018-07-03T13:49:51.978Z,2.20
2018-07-03T13:52:19.598Z,2.47
2018-07-03T13:54:47.184Z,2.42
2018-07-03T13:57:14.898Z,2.30
2018-07-03T13:59:42.530Z,2.15
2018-07-03T14:02:10.201Z,2.42
2018-07-03T14:04:37.848Z,2.27
2018-07-03T14:07:05.480Z,2.77
2018-07-03T14:09:33.004Z,2.30
2018-07-03T14:12:00.725Z,2.35
2018-07-03T14:14:28.443Z,2.10
2018-07-03T14:16:56.099Z,2.42
2018-07-03T14:19:23.753Z,2.12
2018-07-03T14:21:51.400Z,2.30
2018-07-03T14:24:19.040Z,2.80
2018-07-03T14:26:46.680Z,2.50
2018-07-03T14:29:14.401Z,2.80
2018-07-03T14:31:42.024Z,2.60
2018-07-03T14:34:09.676Z,2.87
2018-07-03T14:36:37.295Z,3.08
2018-07-03T14:39:09.618Z,2.70
2018-07-03T14:41:37.305Z,2.83
2018-07-03T14:44:05.106Z,2.30
2018-07-03T14:46:32.749Z,2.85
2018-07-03T14:49:00.466Z,2.95
2018-07-03T14:51:28.173Z,2.58
2018-07-03T14:53:55.787Z,2.62
2018-07-03T14:56:23.675Z,2.80
2018-07-03T14:58:51.312Z,2.80
2018-07-03T15:01:18.958Z,3.08
2018-07-03T15:03:46.564Z,3.27
2018-07-03T15:06:14.245Z,3.22
2018-07-03T15:08:41.854Z,3.67
2018-07-03T15:11:09.496Z,2.83
2018-07-03T15:13:37.121Z,4.12
2018-07-03T15:16:04.889Z,3.58
2018-07-03T15:18:38.082Z,4.03
2018-07-03T15:21:05.886Z,3.27
2018-07-03T15:23:33.496Z,3.08
2018-07-03T15:26:01.322Z,3.50
2018-07-03T15:28:28.928Z,2.50
2018-07-03T15:30:56.561Z,3.10
2018-07-03T15:33:24.222Z,4.20
2018-07-03T15:35:51.905Z,3.67
2018-07-03T15:38:19.605Z,2.90
2018-07-03T15:40:47.267Z,2.90
2018-07-03T15:43:14.937Z,3.12
2018-07-03T15:45:42.557Z,3.02
2018-07-03T15:48:10.130Z,3.33
2018-07-03T15:50:37.789Z,3.25
2018-07-03T15:53:05.416Z,3.17
2018-07-03T15:55:33.068Z,3.00
2018-07-03T15:58:00.722Z,3.85
2018-07-03T16:00:28.488Z,4.03
2018-07-03T16:03:07.396Z,3.62
2018-07-03T16:05:46.406Z,3.40
2018-07-03T16:08:25.331Z,3.65
2018-07-03T16:10:52.955Z,5.10
2018-07-03T16:13:20.653Z,3.15
2018-07-03T16:15:48.287Z,3.83
2018-07-03T16:18:15.953Z,3.08
2018-07-03T16:20:43.609Z,3.67
2018-07-03T16:23:11.263Z,2.98
2018-07-03T16:25:38.943Z,3.33
2018-07-03T16:28:06.678Z,3.00
2018-07-03T16:30:34.320Z,3.12
2018-07-03T16:33:01.988Z,2.98
2018-07-03T16:35:29.628Z,3.25
2018-07-03T16:37:57.331Z,3.25
2018-07-03T16:40:24.977Z,4.15
2018-07-03T16:42:52.638Z,3.98
2018-07-03T16:45:20.289Z,3.27
2018-07-03T16:47:48.063Z,2.62
2018-07-03T16:50:15.719Z,2.20
2018-07-03T16:52:43.470Z,2.98
2018-07-03T16:55:11.351Z,2.62
2018-07-03T16:57:39.063Z,2.87
2018-07-03T17:00:06.782Z,1.85
2018-07-03T17:02:34.513Z,2.00
2018-07-03T17:05:02.297Z,1.98
2018-07-03T17:07:30.028Z,2.10
2018-07-03T17:09:57.685Z,2.33
2018-07-03T17:12:25.399Z,2.25
2018-07-03T17:14:53.047Z,2.25
2018-07-03T17:17:20.699Z,2.47
2018-07-03T17:19:48.314Z,2.17
2018-07-03T17:22:16.049Z,3.22
2018-07-03T17:24:43.691Z,3.20
2018-07-03T17:27:12.181Z,2.65
2018-07-03T17:29:39.831Z,2.30
2018-07-03T17:32:07.504Z,2.37
2018-07-03T17:34:35.205Z,2.62
2018-07-03T17:37:02.896Z,2.58
2018-07-03T17:39:41.748Z,2.60
2018-07-03T17:42:20.725Z,2.47
2018-07-03T17:46:04.436Z,2.67
2018-07-03T17:48:32.281Z,2.67
2018-07-03T17:50:59.977Z,2.80
2018-07-03T17:53:27.652Z,2.67
2018-07-03T17:55:55.811Z,2.45
2018-07-03T17:58:23.772Z,2.72
2018-07-03T18:00:51.201Z,2.55
2018-07-03T18:03:18.844Z,2.60
2018-07-03T18:05:46.597Z,2.70
2018-07-03T18:08:14.342Z,2.95
2018-07-03T18:10:42.255Z,3.17
2018-07-03T18:13:09.917Z,2.87
2018-07-03T18:15:37.681Z,2.70
2018-07-03T18:18:05.434Z,3.20
2018-07-03T18:20:33.089Z,2.77
2018-07-03T18:23:00.753Z,3.13
2018-07-03T18:25:28.461Z,4.33
2018-07-03T18:27:56.117Z,3.90
2018-07-03T18:30:23.737Z,2.67
2018-07-03T18:32:51.401Z,2.77
2018-07-03T18:35:19.103Z,2.87
2018-07-03T18:37:46.758Z,2.93
2018-07-03T18:40:14.549Z,2.50
2018-07-03T18:42:42.209Z,1.80
2018-07-03T18:45:09.860Z,2.33
2018-07-03T18:47:37.497Z,2.53
2018-07-03T18:50:05.441Z,2.20
2018-07-03T18:52:33.117Z,2.57
2018-07-03T18:55:00.801Z,2.90
2018-07-03T18:57:28.509Z,3.57
2018-07-03T18:59:56.642Z,2.50
2018-07-03T19:02:30.824Z,2.20
2018-07-03T19:04:58.482Z,2.20
2018-07-03T19:07:26.089Z,2.13
2018-07-03T19:09:53.733Z,2.07
2018-07-03T19:12:21.418Z,3.43
2018-07-03T19:14:49.101Z,3.07
2018-07-03T19:17:16.810Z,4.43
2018-07-03T19:19:44.507Z,3.70
2018-07-03T19:22:12.137Z,2.77
2018-07-03T19:24:52.924Z,1.87
2018-07-03T19:27:20.572Z,2.67
2018-07-03T19:29:48.320Z,2.50
2018-07-03T19:32:15.984Z,2.60
2018-07-03T19:34:43.681Z,1.90
2018-07-03T19:37:11.585Z,2.83
2018-07-03T19:39:39.277Z,2.57
2018-07-03T19:42:06.969Z,3.30
2018-07-03T19:44:34.566Z,2.37
2018-07-03T19:47:02.212Z,2.70
2018-07-03T19:49:29.895Z,2.00
2018-07-03T19:51:57.537Z,2.07
2018-07-03T19:54:25.207Z,1.90
2018-07-03T19:56:52.829Z,2.40
2018-07-03T19:59:20.502Z,1.70
2018-07-03T20:01:48.157Z,2.00
2018-07-03T20:04:15.853Z,1.60
2018-07-03T20:06:43.528Z,1.90
2018-07-03T20:09:12.224Z,2.13
2018-07-03T20:11:39.901Z,1.77
2018-07-03T20:14:07.845Z,2.03
2018-07-03T20:16:35.493Z,2.27
2018-07-03T20:19:03.222Z,2.23
2018-07-03T20:21:30.871Z,3.60
2018-07-03T20:24:11.710Z,2.73
2018-07-03T20:26:39.711Z,2.20
2018-07-03T20:29:07.376Z,2.57
2018-07-03T20:31:34.998Z,2.93
2018-07-03T20:34:02.696Z,2.40
2018-07-03T20:36:30.368Z,2.27
2018-07-03T20:38:58.024Z,2.10
2018-07-03T20:41:25.666Z,2.17
2018-07-03T20:43:53.789Z,2.17
2018-07-03T20:46:21.416Z,1.93
2018-07-03T20:48:49.044Z,2.07
2018-07-03T20:51:16.699Z,1.93
2018-07-03T20:53:44.436Z,2.43
2018-07-03T20:56:12.103Z,2.20
2018-07-03T20:58:39.805Z,2.33
2018-07-03T21:01:07.458Z,2.57
2018-07-03T21:03:35.131Z,2.50
2018-07-03T21:06:02.922Z,1.90
2018-07-03T21:08:30.496Z,2.17
2018-07-03T21:10:58.172Z,2.10
2018-07-03T21:13:25.817Z,2.30
2018-07-03T21:15:53.462Z,2.17
2018-07-03T21:18:21.125Z,2.30
2018-07-03T21:20:48.825Z,2.30
2018-07-03T21:23:17.005Z,3.07
2018-07-03T21:25:44.657Z,2.57
2018-07-03T21:28:12.268Z,2.63
2018-07-03T21:30:39.905Z,2.63
2018-07-03T21:33:07.561Z,2.67
2018-07-03T21:35:35.166Z,2.40
2018-07-03T21:38:02.831Z,2.47
2018-07-03T21:40:30.515Z,2.00
2018-07-03T21:42:58.161Z,1.90
2018-07-03T21:45:25.759Z,2.27
2018-07-03T21:47:53.420Z,2.63
2018-07-03T21:50:21.027Z,1.70
2018-07-03T21:52:49.083Z,2.50
2018-07-03T21:55:16.740Z,2.33
2018-07-03T21:57:44.337Z,2.23
2018-07-03T22:00:11.973Z,2.23
2018-07-03T22:02:39.576Z,2.17
2018-07-03T22:05:07.205Z,2.00
2018-07-03T22:07:34.793Z,2.33
2018-07-03T22:10:02.729Z,2.27
2018-07-03T22:12:30.462Z,3.10
2018-07-03T22:14:58.083Z,3.63
2018-07-03T22:17:26.233Z,2.30
2018-07-03T22:19:53.874Z,3.00
2018-07-03T22:22:21.516Z,2.50
2018-07-03T22:24:49.141Z,2.53
2018-07-03T22:27:16.812Z,2.10
2018-07-03T22:29:44.424Z,2.47
2018-07-03T22:32:12.028Z,2.70
2018-07-03T22:34:39.776Z,2.77
2018-07-03T22:37:07.446Z,2.73
2018-07-03T22:39:35.228Z,2.57
2018-07-03T22:42:02.832Z,3.47
2018-07-03T22:44:30.428Z,3.07
2018-07-03T22:46:58.074Z,4.70
2018-07-03T22:49:25.700Z,3.67
2018-07-03T22:51:53.328Z,3.30
2018-07-03T22:54:20.948Z,2.97
2018-07-03T22:56:48.576Z,2.97
2018-07-03T22:59:16.071Z,2.90
2018-07-03T23:01:43.681Z,2.80
2018-07-03T23:04:11.300Z,3.60
2018-07-03T23:06:38.928Z,2.97
2018-07-03T23:09:07.242Z,3.30
2018-07-03T23:11:34.903Z,2.63
2018-07-03T23:14:02.568Z,3.77
2018-07-03T23:16:30.510Z,3.53
2018-07-03T23:18:58.131Z,2.87
2018-07-03T23:21:25.809Z,2.40
2018-07-03T23:23:53.424Z,3.47
2018-07-03T23:26:21.045Z,3.30
2018-07-03T23:28:48.651Z,3.47
2018-07-03T23:31:16.330Z,3.07
2018-07-03T23:33:43.895Z,3.93
2018-07-03T23:36:11.450Z,3.73
2018-07-03T23:38:39.045Z,2.70
2018-07-03T23:41:06.737Z,3.50
2018-07-03T23:43:34.337Z,3.50
2018-07-03T23:46:00.846Z,3.17
2018-07-03T23:48:39.847Z,3.63
2018-07-03T23:51:19.697Z,3.30
2018-07-03T23:53:58.802Z,3.10
2018-07-03T23:56:38.887Z,3.47
2018-07-03T23:59:17.968Z,3.33
